sensor_id;sensor_type;location;lat;lon;timestamp;P1;durP1;ratioP1;P2;durP2;ratioP2
24745;SDS011;12845;52.042;6.838;2022-08-19T00:00:11;12.52;;;11.23;;
24745;SDS011;12845;52.042;6.838;2022-08-19T00:02:40;12.23;;;10.88;;
24745;SDS011;12845;52.042;6.838;2022-08-19T00:05:06;12.85;;;10.00;;
24745;SDS011;12845;52.042;6.838;2022-08-19T00:07:32;12.57;;;11.13;;
24745;SDS011;12845;52.042;6.838;2022-08-19T00:09:58;12.43;;;10.77;;
24745;SDS011;12845;52.042;6.838;2022-08-19T00:12:23;12.45;;;11.15;;
24745;SDS011;12845;52.042;6.838;2022-08-19T00:14:49;12.07;;;10.77;;
24745;SDS011;12845;52.042;6.838;2022-08-19T00:17:14;14.52;;;10.70;;
24745;SDS011;12845;52.042;6.838;2022-08-19T00:19:39;12.77;;;10.88;;
24745;SDS011;12845;52.042;6.838;2022-08-19T00:22:05;12.07;;;10.30;;
24745;SDS011;12845;52.042;6.838;2022-08-19T00:24:32;14.10;;;11.18;;
24745;SDS011;12845;52.042;6.838;2022-08-19T00:26:57;13.98;;;11.23;;
24745;SDS011;12845;52.042;6.838;2022-08-19T00:29:23;14.85;;;11.30;;
24745;SDS011;12845;52.042;6.838;2022-08-19T00:31:49;13.27;;;11.88;;
24745;SDS011;12845;52.042;6.838;2022-08-19T00:34:18;13.20;;;10.90;;
24745;SDS011;12845;52.042;6.838;2022-08-19T00:36:44;12.70;;;11.30;;
24745;SDS011;12845;52.042;6.838;2022-08-19T00:39:10;13.63;;;11.38;;
24745;SDS011;12845;52.042;6.838;2022-08-19T00:41:37;19.30;;;11.68;;
24745;SDS011;12845;52.042;6.838;2022-08-19T00:44:08;14.98;;;12.20;;
24745;SDS011;12845;52.042;6.838;2022-08-19T00:46:39;14.38;;;11.48;;
24745;SDS011;12845;52.042;6.838;2022-08-19T00:52:09;15.90;;;11.70;;
24745;SDS011;12845;52.042;6.838;2022-08-19T00:54:40;14.00;;;11.63;;
24745;SDS011;12845;52.042;6.838;2022-08-19T00:57:08;18.30;;;11.68;;
24745;SDS011;12845;52.042;6.838;2022-08-19T00:59:35;17.20;;;13.07;;
24745;SDS011;12845;52.042;6.838;2022-08-19T01:02:03;16.92;;;13.75;;
24745;SDS011;12845;52.042;6.838;2022-08-19T01:04:28;17.05;;;14.50;;
24745;SDS011;12845;52.042;6.838;2022-08-19T01:06:54;16.80;;;13.68;;
24745;SDS011;12845;52.042;6.838;2022-08-19T01:09:21;19.52;;;15.27;;
24745;SDS011;12845;52.042;6.838;2022-08-19T01:11:46;17.98;;;15.70;;
24745;SDS011;12845;52.042;6.838;2022-08-19T01:14:12;18.52;;;15.98;;
24745;SDS011;12845;52.042;6.838;2022-08-19T01:16:39;17.67;;;14.80;;
24745;SDS011;12845;52.042;6.838;2022-08-19T01:19:19;17.35;;;15.27;;
24745;SDS011;12845;52.042;6.838;2022-08-19T01:21:48;18.15;;;15.23;;
24745;SDS011;12845;52.042;6.838;2022-08-19T01:24:16;20.20;;;15.73;;
24745;SDS011;12845;52.042;6.838;2022-08-19T01:26:42;19.67;;;15.15;;
24745;SDS011;12845;52.042;6.838;2022-08-19T01:29:10;20.25;;;15.88;;
24745;SDS011;12845;52.042;6.838;2022-08-19T01:31:35;18.30;;;15.18;;
24745;SDS011;12845;52.042;6.838;2022-08-19T01:34:02;19.73;;;15.45;;
24745;SDS011;12845;52.042;6.838;2022-08-19T01:36:32;20.40;;;17.73;;
24745;SDS011;12845;52.042;6.838;2022-08-19T01:41:27;20.65;;;17.77;;
24745;SDS011;12845;52.042;6.838;2022-08-19T01:43:52;23.50;;;19.15;;
24745;SDS011;12845;52.042;6.838;2022-08-19T01:46:18;20.73;;;17.65;;
24745;SDS011;12845;52.042;6.838;2022-08-19T01:48:44;21.80;;;17.50;;
24745;SDS011;12845;52.042;6.838;2022-08-19T01:51:11;20.00;;;17.35;;
24745;SDS011;12845;52.042;6.838;2022-08-19T01:53:37;22.27;;;17.63;;
24745;SDS011;12845;52.042;6.838;2022-08-19T01:56:03;22.27;;;17.65;;
24745;SDS011;12845;52.042;6.838;2022-08-19T01:58:33;23.55;;;18.48;;
24745;SDS011;12845;52.042;6.838;2022-08-19T02:01:06;21.52;;;17.40;;
24745;SDS011;12845;52.042;6.838;2022-08-19T02:03:32;22.40;;;18.20;;
24745;SDS011;12845;52.042;6.838;2022-08-19T02:05:59;20.85;;;17.67;;
24745;SDS011;12845;52.042;6.838;2022-08-19T02:08:29;19.20;;;17.20;;
24745;SDS011;12845;52.042;6.838;2022-08-19T02:10:54;21.65;;;18.17;;
24745;SDS011;12845;52.042;6.838;2022-08-19T02:13:20;23.15;;;18.73;;
24745;SDS011;12845;52.042;6.838;2022-08-19T02:15:46;22.58;;;18.13;;
24745;SDS011;12845;52.042;6.838;2022-08-19T02:18:11;21.65;;;18.25;;
24745;SDS011;12845;52.042;6.838;2022-08-19T02:20:37;23.48;;;19.85;;
24745;SDS011;12845;52.042;6.838;2022-08-19T02:23:04;26.17;;;19.85;;
24745;SDS011;12845;52.042;6.838;2022-08-19T02:25:30;22.30;;;19.17;;
24745;SDS011;12845;52.042;6.838;2022-08-19T02:27:56;21.90;;;18.75;;
24745;SDS011;12845;52.042;6.838;2022-08-19T02:30:21;21.75;;;18.25;;
24745;SDS011;12845;52.042;6.838;2022-08-19T02:32:47;22.75;;;18.08;;
24745;SDS011;12845;52.042;6.838;2022-08-19T02:35:13;21.88;;;18.42;;
24745;SDS011;12845;52.042;6.838;2022-08-19T02:37:40;20.80;;;17.55;;
24745;SDS011;12845;52.042;6.838;2022-08-19T02:40:24;23.98;;;18.60;;
24745;SDS011;12845;52.042;6.838;2022-08-19T02:42:49;23.10;;;17.88;;
24745;SDS011;12845;52.042;6.838;2022-08-19T02:45:15;21.60;;;18.30;;
24745;SDS011;12845;52.042;6.838;2022-08-19T02:47:41;20.42;;;18.15;;
24745;SDS011;12845;52.042;6.838;2022-08-19T02:50:06;21.75;;;18.45;;
24745;SDS011;12845;52.042;6.838;2022-08-19T02:52:33;20.55;;;17.80;;
24745;SDS011;12845;52.042;6.838;2022-08-19T02:54:59;21.65;;;17.98;;
24745;SDS011;12845;52.042;6.838;2022-08-19T02:57:25;20.10;;;17.90;;
24745;SDS011;12845;52.042;6.838;2022-08-19T02:59:51;22.17;;;17.40;;
24745;SDS011;12845;52.042;6.838;2022-08-19T03:02:16;21.85;;;19.23;;
24745;SDS011;12845;52.042;6.838;2022-08-19T03:04:41;24.92;;;19.23;;
24745;SDS011;12845;52.042;6.838;2022-08-19T03:07:07;23.95;;;18.75;;
24745;SDS011;12845;52.042;6.838;2022-08-19T03:09:32;25.17;;;21.10;;
24745;SDS011;12845;52.042;6.838;2022-08-19T03:11:58;23.42;;;18.95;;
24745;SDS011;12845;52.042;6.838;2022-08-19T03:14:23;23.80;;;18.98;;
24745;SDS011;12845;52.042;6.838;2022-08-19T03:16:49;22.00;;;18.98;;
24745;SDS011;12845;52.042;6.838;2022-08-19T03:19:16;25.38;;;19.98;;
24745;SDS011;12845;52.042;6.838;2022-08-19T03:21:43;26.02;;;20.73;;
24745;SDS011;12845;52.042;6.838;2022-08-19T03:24:09;26.38;;;20.33;;
24745;SDS011;12845;52.042;6.838;2022-08-19T03:26:38;24.27;;;20.25;;
24745;SDS011;12845;52.042;6.838;2022-08-19T03:29:08;25.80;;;20.48;;
24745;SDS011;12845;52.042;6.838;2022-08-19T03:31:35;25.73;;;21.33;;
24745;SDS011;12845;52.042;6.838;2022-08-19T03:34:02;25.63;;;20.60;;
24745;SDS011;12845;52.042;6.838;2022-08-19T03:36:27;24.15;;;19.77;;
24745;SDS011;12845;52.042;6.838;2022-08-19T03:38:54;25.90;;;21.45;;
24745;SDS011;12845;52.042;6.838;2022-08-19T03:41:32;28.65;;;22.55;;
24745;SDS011;12845;52.042;6.838;2022-08-19T03:44:01;27.90;;;23.20;;
24745;SDS011;12845;52.042;6.838;2022-08-19T03:46:28;28.98;;;23.00;;
24745;SDS011;12845;52.042;6.838;2022-08-19T03:48:56;29.98;;;23.23;;
24745;SDS011;12845;52.042;6.838;2022-08-19T03:51:27;27.50;;;22.67;;
24745;SDS011;12845;52.042;6.838;2022-08-19T03:53:54;27.48;;;22.33;;
24745;SDS011;12845;52.042;6.838;2022-08-19T03:56:20;25.75;;;21.70;;
24745;SDS011;12845;52.042;6.838;2022-08-19T03:58:46;26.15;;;20.25;;
24745;SDS011;12845;52.042;6.838;2022-08-19T04:01:12;23.52;;;20.05;;
24745;SDS011;12845;52.042;6.838;2022-08-19T04:03:38;27.30;;;20.70;;
24745;SDS011;12845;52.042;6.838;2022-08-19T04:06:26;28.05;;;21.10;;
24745;SDS011;12845;52.042;6.838;2022-08-19T04:08:52;26.38;;;21.02;;
24745;SDS011;12845;52.042;6.838;2022-08-19T04:11:20;24.52;;;21.13;;
24745;SDS011;12845;52.042;6.838;2022-08-19T04:13:48;26.55;;;21.17;;
24745;SDS011;12845;52.042;6.838;2022-08-19T04:16:16;25.00;;;20.67;;
24745;SDS011;12845;52.042;6.838;2022-08-19T04:18:42;26.70;;;20.48;;
24745;SDS011;12845;52.042;6.838;2022-08-19T04:21:08;26.00;;;19.70;;
24745;SDS011;12845;52.042;6.838;2022-08-19T04:23:34;27.17;;;21.20;;
24745;SDS011;12845;52.042;6.838;2022-08-19T04:26:01;29.48;;;21.80;;
24745;SDS011;12845;52.042;6.838;2022-08-19T04:28:27;26.42;;;21.20;;
24745;SDS011;12845;52.042;6.838;2022-08-19T04:30:54;27.50;;;21.92;;
24745;SDS011;12845;52.042;6.838;2022-08-19T04:33:21;28.98;;;21.42;;
24745;SDS011;12845;52.042;6.838;2022-08-19T04:35:48;28.02;;;21.88;;
24745;SDS011;12845;52.042;6.838;2022-08-19T04:38:14;29.58;;;22.10;;
24745;SDS011;12845;52.042;6.838;2022-08-19T04:40:41;30.90;;;24.48;;
24745;SDS011;12845;52.042;6.838;2022-08-19T04:43:29;29.40;;;23.38;;
24745;SDS011;12845;52.042;6.838;2022-08-19T04:45:56;32.67;;;25.13;;
24745;SDS011;12845;52.042;6.838;2022-08-19T04:48:22;31.27;;;26.10;;
24745;SDS011;12845;52.042;6.838;2022-08-19T04:50:57;30.73;;;25.27;;
24745;SDS011;12845;52.042;6.838;2022-08-19T04:53:24;31.45;;;25.05;;
24745;SDS011;12845;52.042;6.838;2022-08-19T04:55:50;31.63;;;25.92;;
24745;SDS011;12845;52.042;6.838;2022-08-19T04:58:16;29.67;;;23.27;;
24745;SDS011;12845;52.042;6.838;2022-08-19T05:00:42;30.92;;;23.33;;
24745;SDS011;12845;52.042;6.838;2022-08-19T05:03:08;31.08;;;23.83;;
24745;SDS011;12845;52.042;6.838;2022-08-19T05:05:33;30.30;;;23.33;;
24745;SDS011;12845;52.042;6.838;2022-08-19T05:08:03;34.22;;;25.30;;
24745;SDS011;12845;52.042;6.838;2022-08-19T05:10:29;33.30;;;25.33;;
24745;SDS011;12845;52.042;6.838;2022-08-19T05:12:55;31.05;;;24.83;;
24745;SDS011;12845;52.042;6.838;2022-08-19T05:15:22;28.88;;;23.88;;
24745;SDS011;12845;52.042;6.838;2022-08-19T05:17:47;30.88;;;22.70;;
24745;SDS011;12845;52.042;6.838;2022-08-19T05:20:33;29.20;;;24.00;;
24745;SDS011;12845;52.042;6.838;2022-08-19T05:23:16;31.85;;;24.00;;
24745;SDS011;12845;52.042;6.838;2022-08-19T05:25:42;30.48;;;23.80;;
24745;SDS011;12845;52.042;6.838;2022-08-19T05:28:07;28.40;;;22.15;;
24745;SDS011;12845;52.042;6.838;2022-08-19T05:30:33;28.38;;;23.60;;
24745;SDS011;12845;52.042;6.838;2022-08-19T05:32:59;28.90;;;22.15;;
24745;SDS011;12845;52.042;6.838;2022-08-19T05:35:24;27.95;;;21.08;;
24745;SDS011;12845;52.042;6.838;2022-08-19T05:37:49;26.10;;;21.60;;
24745;SDS011;12845;52.042;6.838;2022-08-19T05:40:15;26.55;;;22.52;;
24745;SDS011;12845;52.042;6.838;2022-08-19T05:42:40;29.17;;;22.52;;
24745;SDS011;12845;52.042;6.838;2022-08-19T05:45:06;26.88;;;22.40;;
24745;SDS011;12845;52.042;6.838;2022-08-19T05:47:32;30.05;;;24.52;;
24745;SDS011;12845;52.042;6.838;2022-08-19T05:49:58;30.00;;;23.48;;
24745;SDS011;12845;52.042;6.838;2022-08-19T05:52:24;28.92;;;22.60;;
24745;SDS011;12845;52.042;6.838;2022-08-19T05:54:49;31.92;;;23.17;;
24745;SDS011;12845;52.042;6.838;2022-08-19T05:57:16;32.97;;;26.02;;
24745;SDS011;12845;52.042;6.838;2022-08-19T05:59:41;28.25;;;23.48;;
24745;SDS011;12845;52.042;6.838;2022-08-19T06:02:07;32.88;;;26.30;;
24745;SDS011;12845;52.042;6.838;2022-08-19T06:04:33;29.45;;;25.50;;
24745;SDS011;12845;52.042;6.838;2022-08-19T06:06:58;32.17;;;24.92;;
24745;SDS011;12845;52.042;6.838;2022-08-19T06:09:24;35.13;;;26.20;;
24745;SDS011;12845;52.042;6.838;2022-08-19T06:11:51;36.92;;;27.20;;
24745;SDS011;12845;52.042;6.838;2022-08-19T06:14:20;33.42;;;27.23;;
24745;SDS011;12845;52.042;6.838;2022-08-19T06:16:49;39.95;;;28.98;;
24745;SDS011;12845;52.042;6.838;2022-08-19T06:19:17;36.27;;;28.30;;
24745;SDS011;12845;52.042;6.838;2022-08-19T06:21:45;33.47;;;28.50;;
24745;SDS011;12845;52.042;6.838;2022-08-19T06:24:13;35.95;;;28.83;;
24745;SDS011;12845;52.042;6.838;2022-08-19T06:26:41;40.67;;;33.25;;
24745;SDS011;12845;52.042;6.838;2022-08-19T06:29:09;40.35;;;32.35;;
24745;SDS011;12845;52.042;6.838;2022-08-19T06:31:35;39.55;;;33.15;;
24745;SDS011;12845;52.042;6.838;2022-08-19T06:34:02;41.20;;;34.72;;
24745;SDS011;12845;52.042;6.838;2022-08-19T06:36:32;40.53;;;33.28;;
24745;SDS011;12845;52.042;6.838;2022-08-19T06:39:10;37.05;;;28.55;;
24745;SDS011;12845;52.042;6.838;2022-08-19T06:41:36;36.38;;;29.00;;
24745;SDS011;12845;52.042;6.838;2022-08-19T06:44:02;35.28;;;28.15;;
24745;SDS011;12845;52.042;6.838;2022-08-19T06:46:28;34.83;;;26.98;;
24745;SDS011;12845;52.042;6.838;2022-08-19T06:48:54;35.15;;;28.80;;
24745;SDS011;12845;52.042;6.838;2022-08-19T06:51:20;34.75;;;28.70;;
24745;SDS011;12845;52.042;6.838;2022-08-19T06:53:47;34.97;;;28.60;;
24745;SDS011;12845;52.042;6.838;2022-08-19T06:56:14;37.00;;;29.35;;
24745;SDS011;12845;52.042;6.838;2022-08-19T06:58:41;34.25;;;26.45;;
24745;SDS011;12845;52.042;6.838;2022-08-19T07:01:07;34.92;;;27.50;;
24745;SDS011;12845;52.042;6.838;2022-08-19T07:03:33;32.53;;;26.23;;
24745;SDS011;12845;52.042;6.838;2022-08-19T07:06:08;32.33;;;23.52;;
24745;SDS011;12845;52.042;6.838;2022-08-19T07:08:36;26.45;;;21.33;;
24745;SDS011;12845;52.042;6.838;2022-08-19T07:11:06;31.75;;;23.13;;
24745;SDS011;12845;52.042;6.838;2022-08-19T07:13:32;30.48;;;22.17;;
24745;SDS011;12845;52.042;6.838;2022-08-19T07:16:05;27.95;;;21.08;;
24745;SDS011;12845;52.042;6.838;2022-08-19T07:18:32;25.55;;;21.15;;
24745;SDS011;12845;52.042;6.838;2022-08-19T07:21:05;27.42;;;20.60;;
24745;SDS011;12845;52.042;6.838;2022-08-19T07:23:32;26.38;;;20.88;;
24745;SDS011;12845;52.042;6.838;2022-08-19T07:25:58;26.33;;;19.70;;
24745;SDS011;12845;52.042;6.838;2022-08-19T07:28:30;29.98;;;20.45;;
24745;SDS011;12845;52.042;6.838;2022-08-19T07:30:56;28.20;;;19.67;;
24745;SDS011;12845;52.042;6.838;2022-08-19T07:33:21;24.88;;;18.98;;
24745;SDS011;12845;52.042;6.838;2022-08-19T07:35:46;22.93;;;20.37;;
24745;SDS011;12845;52.042;6.838;2022-08-19T07:38:12;26.08;;;18.92;;
24745;SDS011;12845;52.042;6.838;2022-08-19T07:40:37;24.13;;;18.83;;
24745;SDS011;12845;52.042;6.838;2022-08-19T07:43:02;25.77;;;19.73;;
24745;SDS011;12845;52.042;6.838;2022-08-19T07:45:28;25.75;;;19.05;;
24745;SDS011;12845;52.042;6.838;2022-08-19T07:47:53;25.65;;;19.42;;
24745;SDS011;12845;52.042;6.838;2022-08-19T07:50:19;26.55;;;19.63;;
24745;SDS011;12845;52.042;6.838;2022-08-19T07:52:45;23.30;;;19.73;;
24745;SDS011;12845;52.042;6.838;2022-08-19T07:55:12;23.35;;;18.15;;
24745;SDS011;12845;52.042;6.838;2022-08-19T07:57:37;24.00;;;19.30;;
24745;SDS011;12845;52.042;6.838;2022-08-19T08:00:04;25.42;;;19.20;;
24745;SDS011;12845;52.042;6.838;2022-08-19T08:02:30;22.60;;;20.00;;
24745;SDS011;12845;52.042;6.838;2022-08-19T08:04:56;24.08;;;18.75;;
24745;SDS011;12845;52.042;6.838;2022-08-19T08:07:39;21.63;;;18.05;;
24745;SDS011;12845;52.042;6.838;2022-08-19T08:10:23;23.92;;;17.08;;
24745;SDS011;12845;52.042;6.838;2022-08-19T08:12:49;21.98;;;17.70;;
24745;SDS011;12845;52.042;6.838;2022-08-19T08:15:16;23.20;;;16.50;;
24745;SDS011;12845;52.042;6.838;2022-08-19T08:17:41;18.10;;;15.20;;
24745;SDS011;12845;52.042;6.838;2022-08-19T08:20:07;21.67;;;18.55;;
24745;SDS011;12845;52.042;6.838;2022-08-19T08:22:33;24.67;;;19.88;;
24745;SDS011;12845;52.042;6.838;2022-08-19T08:25:19;21.27;;;18.85;;
24745;SDS011;12845;52.042;6.838;2022-08-19T08:27:46;20.40;;;18.20;;
24745;SDS011;12845;52.042;6.838;2022-08-19T08:30:14;24.70;;;20.35;;
24745;SDS011;12845;52.042;6.838;2022-08-19T08:32:41;24.52;;;21.90;;
24745;SDS011;12845;52.042;6.838;2022-08-19T08:35:08;24.95;;;21.83;;
24745;SDS011;12845;52.042;6.838;2022-08-19T08:40:05;27.25;;;23.33;;
24745;SDS011;12845;52.042;6.838;2022-08-19T08:42:44;25.05;;;22.45;;
24745;SDS011;12845;52.042;6.838;2022-08-19T08:45:17;25.70;;;21.98;;
24745;SDS011;12845;52.042;6.838;2022-08-19T08:47:44;28.77;;;24.23;;
24745;SDS011;12845;52.042;6.838;2022-08-19T08:50:16;29.42;;;23.98;;
24745;SDS011;12845;52.042;6.838;2022-08-19T08:52:47;26.92;;;22.00;;
24745;SDS011;12845;52.042;6.838;2022-08-19T08:55:20;25.10;;;20.45;;
24745;SDS011;12845;52.042;6.838;2022-08-19T09:00:21;27.30;;;21.73;;
24745;SDS011;12845;52.042;6.838;2022-08-19T09:03:09;24.10;;;21.33;;
24745;SDS011;12845;52.042;6.838;2022-08-19T09:11:10;26.65;;;23.85;;
24745;SDS011;12845;52.042;6.838;2022-08-19T09:14:02;22.58;;;19.58;;
24745;SDS011;12845;52.042;6.838;2022-08-19T09:16:32;23.13;;;20.07;;
24745;SDS011;12845;52.042;6.838;2022-08-19T09:19:00;20.38;;;18.17;;
24745;SDS011;12845;52.042;6.838;2022-08-19T09:21:29;23.40;;;18.48;;
24745;SDS011;12845;52.042;6.838;2022-08-19T09:23:54;20.85;;;17.50;;
24745;SDS011;12845;52.042;6.838;2022-08-19T09:26:22;21.55;;;17.10;;
24745;SDS011;12845;52.042;6.838;2022-08-19T09:28:48;21.50;;;17.55;;
24745;SDS011;12845;52.042;6.838;2022-08-19T09:31:16;21.50;;;16.20;;
24745;SDS011;12845;52.042;6.838;2022-08-19T09:33:43;14.57;;;12.63;;
24745;SDS011;12845;52.042;6.838;2022-08-19T09:36:10;16.17;;;12.55;;
24745;SDS011;12845;52.042;6.838;2022-08-19T09:38:38;16.73;;;14.93;;
24745;SDS011;12845;52.042;6.838;2022-08-19T09:41:06;18.85;;;15.57;;
24745;SDS011;12845;52.042;6.838;2022-08-19T09:43:33;19.58;;;14.50;;
24745;SDS011;12845;52.042;6.838;2022-08-19T09:46:01;21.65;;;16.80;;
24745;SDS011;12845;52.042;6.838;2022-08-19T09:48:31;21.17;;;17.13;;
24745;SDS011;12845;52.042;6.838;2022-08-19T09:51:30;21.02;;;17.58;;
24745;SDS011;12845;52.042;6.838;2022-08-19T09:53:51;22.83;;;20.17;;
24745;SDS011;12845;52.042;6.838;2022-08-19T09:56:18;23.55;;;19.75;;
24745;SDS011;12845;52.042;6.838;2022-08-19T09:58:45;24.08;;;20.77;;
24745;SDS011;12845;52.042;6.838;2022-08-19T10:01:18;24.58;;;20.52;;
24745;SDS011;12845;52.042;6.838;2022-08-19T10:03:49;23.50;;;18.73;;
24745;SDS011;12845;52.042;6.838;2022-08-19T10:06:17;23.45;;;19.83;;
24745;SDS011;12845;52.042;6.838;2022-08-19T10:08:43;27.45;;;20.85;;
24745;SDS011;12845;52.042;6.838;2022-08-19T10:11:09;25.02;;;20.60;;
24745;SDS011;12845;52.042;6.838;2022-08-19T10:13:35;22.83;;;19.35;;
24745;SDS011;12845;52.042;6.838;2022-08-19T10:16:11;24.05;;;18.52;;
24745;SDS011;12845;52.042;6.838;2022-08-19T10:18:41;25.90;;;19.65;;
24745;SDS011;12845;52.042;6.838;2022-08-19T10:23:40;22.13;;;19.05;;
24745;SDS011;12845;52.042;6.838;2022-08-19T10:26:15;21.88;;;19.58;;
24745;SDS011;12845;52.042;6.838;2022-08-19T10:28:43;17.35;;;15.48;;
24745;SDS011;12845;52.042;6.838;2022-08-19T10:31:10;19.90;;;17.80;;
24745;SDS011;12845;52.042;6.838;2022-08-19T10:33:38;19.35;;;17.00;;
24745;SDS011;12845;52.042;6.838;2022-08-19T10:36:12;20.45;;;18.13;;
24745;SDS011;12845;52.042;6.838;2022-08-19T10:38:40;22.52;;;20.08;;
24745;SDS011;12845;52.042;6.838;2022-08-19T10:41:28;19.75;;;17.10;;
24745;SDS011;12845;52.042;6.838;2022-08-19T10:43:57;17.95;;;16.05;;
24745;SDS011;12845;52.042;6.838;2022-08-19T10:46:25;14.60;;;12.68;;
24745;SDS011;12845;52.042;6.838;2022-08-19T10:48:52;19.33;;;13.57;;
24745;SDS011;12845;52.042;6.838;2022-08-19T10:51:18;14.55;;;12.90;;
24745;SDS011;12845;52.042;6.838;2022-08-19T10:54:03;15.40;;;12.65;;
24745;SDS011;12845;52.042;6.838;2022-08-19T10:56:29;15.00;;;12.50;;
24745;SDS011;12845;52.042;6.838;2022-08-19T10:59:14;13.95;;;11.00;;
24745;SDS011;12845;52.042;6.838;2022-08-19T11:01:41;17.50;;;13.18;;
24745;SDS011;12845;52.042;6.838;2022-08-19T11:04:07;17.33;;;14.70;;
24745;SDS011;12845;52.042;6.838;2022-08-19T11:06:36;16.15;;;13.13;;
24745;SDS011;12845;52.042;6.838;2022-08-19T11:09:03;16.10;;;11.70;;
24745;SDS011;12845;52.042;6.838;2022-08-19T11:11:29;15.52;;;11.15;;
24745;SDS011;12845;52.042;6.838;2022-08-19T11:13:55;12.20;;;10.45;;
24745;SDS011;12845;52.042;6.838;2022-08-19T11:16:21;13.95;;;11.85;;
24745;SDS011;12845;52.042;6.838;2022-08-19T11:18:50;12.23;;;10.68;;
24745;SDS011;12845;52.042;6.838;2022-08-19T11:21:18;18.77;;;12.20;;
24745;SDS011;12845;52.042;6.838;2022-08-19T11:23:48;15.32;;;11.52;;
24745;SDS011;12845;52.042;6.838;2022-08-19T11:26:15;13.77;;;9.63;;
24745;SDS011;12845;52.042;6.838;2022-08-19T11:28:41;11.18;;;8.77;;
24745;SDS011;12845;52.042;6.838;2022-08-19T11:31:10;13.40;;;10.50;;
24745;SDS011;12845;52.042;6.838;2022-08-19T11:33:37;16.92;;;12.77;;
24745;SDS011;12845;52.042;6.838;2022-08-19T11:36:03;16.40;;;12.85;;
24745;SDS011;12845;52.042;6.838;2022-08-19T11:38:29;17.00;;;13.27;;
24745;SDS011;12845;52.042;6.838;2022-08-19T11:41:00;15.73;;;12.65;;
24745;SDS011;12845;52.042;6.838;2022-08-19T11:43:28;13.07;;;10.77;;
24745;SDS011;12845;52.042;6.838;2022-08-19T11:45:56;10.00;;;8.20;;
24745;SDS011;12845;52.042;6.838;2022-08-19T11:48:23;15.20;;;11.70;;
24745;SDS011;12845;52.042;6.838;2022-08-19T11:50:50;15.27;;;12.32;;
24745;SDS011;12845;52.042;6.838;2022-08-19T11:53:17;14.48;;;10.40;;
24745;SDS011;12845;52.042;6.838;2022-08-19T11:55:45;16.85;;;13.27;;
24745;SDS011;12845;52.042;6.838;2022-08-19T11:58:12;15.02;;;9.43;;
24745;SDS011;12845;52.042;6.838;2022-08-19T12:00:39;9.07;;;6.10;;
24745;SDS011;12845;52.042;6.838;2022-08-19T12:03:05;11.25;;;9.50;;
24745;SDS011;12845;52.042;6.838;2022-08-19T12:05:30;16.67;;;11.63;;
24745;SDS011;12845;52.042;6.838;2022-08-19T12:07:56;14.05;;;9.90;;
24745;SDS011;12845;52.042;6.838;2022-08-19T12:10:21;7.40;;;5.95;;
24745;SDS011;12845;52.042;6.838;2022-08-19T12:12:48;9.60;;;5.65;;
24745;SDS011;12845;52.042;6.838;2022-08-19T12:15:14;12.40;;;8.27;;
24745;SDS011;12845;52.042;6.838;2022-08-19T12:17:40;11.25;;;8.00;;
24745;SDS011;12845;52.042;6.838;2022-08-19T12:20:06;9.10;;;7.40;;
24745;SDS011;12845;52.042;6.838;2022-08-19T12:22:34;12.75;;;7.55;;
24745;SDS011;12845;52.042;6.838;2022-08-19T12:25:00;8.40;;;7.50;;
24745;SDS011;12845;52.042;6.838;2022-08-19T12:27:26;8.57;;;7.38;;
24745;SDS011;12845;52.042;6.838;2022-08-19T12:29:51;8.63;;;6.63;;
24745;SDS011;12845;52.042;6.838;2022-08-19T12:32:17;10.77;;;6.93;;
24745;SDS011;12845;52.042;6.838;2022-08-19T12:34:42;11.25;;;7.75;;
24745;SDS011;12845;52.042;6.838;2022-08-19T12:37:12;9.68;;;7.38;;
24745;SDS011;12845;52.042;6.838;2022-08-19T12:39:39;12.52;;;7.85;;
24745;SDS011;12845;52.042;6.838;2022-08-19T12:42:10;8.98;;;7.15;;
24745;SDS011;12845;52.042;6.838;2022-08-19T12:44:37;11.57;;;7.30;;
24745;SDS011;12845;52.042;6.838;2022-08-19T12:47:04;8.98;;;7.35;;
24745;SDS011;12845;52.042;6.838;2022-08-19T12:49:30;11.10;;;8.15;;
24745;SDS011;12845;52.042;6.838;2022-08-19T12:51:58;10.18;;;7.82;;
24745;SDS011;12845;52.042;6.838;2022-08-19T12:54:27;8.25;;;7.28;;
24745;SDS011;12845;52.042;6.838;2022-08-19T12:56:55;8.05;;;5.93;;
24745;SDS011;12845;52.042;6.838;2022-08-19T12:59:20;8.23;;;6.10;;
24745;SDS011;12845;52.042;6.838;2022-08-19T13:01:46;11.73;;;7.60;;
24745;SDS011;12845;52.042;6.838;2022-08-19T13:04:11;11.77;;;8.15;;
24745;SDS011;12845;52.042;6.838;2022-08-19T13:06:36;11.05;;;7.43;;
24745;SDS011;12845;52.042;6.838;2022-08-19T13:09:03;10.95;;;8.27;;
24745;SDS011;12845;52.042;6.838;2022-08-19T13:11:29;13.93;;;9.25;;
24745;SDS011;12845;52.042;6.838;2022-08-19T13:13:57;10.73;;;8.15;;
24745;SDS011;12845;52.042;6.838;2022-08-19T13:16:23;11.80;;;8.00;;
24745;SDS011;12845;52.042;6.838;2022-08-19T13:18:49;12.35;;;9.45;;
24745;SDS011;12845;52.042;6.838;2022-08-19T13:21:18;15.55;;;11.02;;
24745;SDS011;12845;52.042;6.838;2022-08-19T13:23:45;16.15;;;9.13;;
24745;SDS011;12845;52.042;6.838;2022-08-19T13:26:13;18.38;;;12.23;;
24745;SDS011;12845;52.042;6.838;2022-08-19T13:28:39;15.60;;;11.02;;
24745;SDS011;12845;52.042;6.838;2022-08-19T13:31:25;18.45;;;12.98;;
24745;SDS011;12845;52.042;6.838;2022-08-19T13:34:10;21.90;;;14.60;;
24745;SDS011;12845;52.042;6.838;2022-08-19T13:36:37;14.93;;;10.52;;
24745;SDS011;12845;52.042;6.838;2022-08-19T13:39:04;15.30;;;10.70;;
24745;SDS011;12845;52.042;6.838;2022-08-19T13:41:30;18.08;;;11.35;;
24745;SDS011;12845;52.042;6.838;2022-08-19T13:43:56;14.70;;;10.80;;
24745;SDS011;12845;52.042;6.838;2022-08-19T13:46:22;18.42;;;12.45;;
24745;SDS011;12845;52.042;6.838;2022-08-19T13:48:47;18.02;;;12.80;;
24745;SDS011;12845;52.042;6.838;2022-08-19T13:51:14;17.13;;;12.80;;
24745;SDS011;12845;52.042;6.838;2022-08-19T13:53:41;17.73;;;11.30;;
24745;SDS011;12845;52.042;6.838;2022-08-19T13:56:08;15.82;;;11.82;;
24745;SDS011;12845;52.042;6.838;2022-08-19T13:58:36;15.87;;;10.77;;
24745;SDS011;12845;52.042;6.838;2022-08-19T14:01:03;14.05;;;9.10;;
24745;SDS011;12845;52.042;6.838;2022-08-19T14:03:29;11.70;;;8.10;;
24745;SDS011;12845;52.042;6.838;2022-08-19T14:05:55;14.13;;;10.05;;
24745;SDS011;12845;52.042;6.838;2022-08-19T14:08:21;13.07;;;9.10;;
24745;SDS011;12845;52.042;6.838;2022-08-19T14:10:47;12.52;;;8.10;;
24745;SDS011;12845;52.042;6.838;2022-08-19T14:13:14;13.57;;;8.93;;
24745;SDS011;12845;52.042;6.838;2022-08-19T14:15:42;13.20;;;7.50;;
24745;SDS011;12845;52.042;6.838;2022-08-19T14:18:08;10.30;;;6.35;;
24745;SDS011;12845;52.042;6.838;2022-08-19T14:20:34;10.70;;;6.30;;
24745;SDS011;12845;52.042;6.838;2022-08-19T14:23:00;10.68;;;6.40;;
24745;SDS011;12845;52.042;6.838;2022-08-19T14:25:26;10.20;;;6.55;;
24745;SDS011;12845;52.042;6.838;2022-08-19T14:27:54;9.60;;;5.80;;
24745;SDS011;12845;52.042;6.838;2022-08-19T14:30:25;8.02;;;5.68;;
24745;SDS011;12845;52.042;6.838;2022-08-19T14:32:54;7.60;;;5.05;;
24745;SDS011;12845;52.042;6.838;2022-08-19T14:35:21;6.82;;;4.97;;
24745;SDS011;12845;52.042;6.838;2022-08-19T14:37:47;9.00;;;5.70;;
24745;SDS011;12845;52.042;6.838;2022-08-19T14:40:14;6.95;;;4.30;;
24745;SDS011;12845;52.042;6.838;2022-08-19T14:42:44;9.25;;;4.85;;
24745;SDS011;12845;52.042;6.838;2022-08-19T14:45:10;8.38;;;5.53;;